createdAt,value
2018-01-08T00:00:52.414Z,15.18
2018-01-08T00:03:20.047Z,10.15
2018-01-08T00:05:47.659Z,10.32
2018-01-08T00:08:15.392Z,10.93
2018-01-08T00:10:43.871Z,11.60
2018-01-08T00:13:12.361Z,8.43
2018-01-08T00:15:40.747Z,10.02
2018-01-08T00:18:08.388Z,10.73
2018-01-08T00:20:36.002Z,9.43
2018-01-08T00:23:03.728Z,10.70
2018-01-08T00:25:32.127Z,8.20
2018-01-08T00:27:59.731Z,8.45
2018-01-08T00:30:27.427Z,10.82
2018-01-08T00:32:55.804Z,10.60
2018-01-08T00:35:24.196Z,9.52
2018-01-08T00:37:52.567Z,19.10
2018-01-08T00:40:21.055Z,27.35
2018-01-08T00:42:49.584Z,41.00
2018-01-08T00:45:17.196Z,18.90
2018-01-08T00:47:45.575Z,20.15
2018-01-08T00:50:13.983Z,18.20
2018-01-08T00:52:41.619Z,19.77
2018-01-08T00:55:10.099Z,24.63
2018-01-08T00:57:38.588Z,13.38
2018-01-08T01:00:07.073Z,18.52
2018-01-08T01:02:35.552Z,11.77
2018-01-08T01:05:03.932Z,19.33
2018-01-08T01:07:32.416Z,15.10
2018-01-08T01:10:00.803Z,10.10
2018-01-08T01:12:28.561Z,10.10
2018-01-08T01:14:57.036Z,11.02
2018-01-08T01:17:25.452Z,6.12
2018-01-08T01:19:53.059Z,7.80
2018-01-08T01:22:20.695Z,7.12
2018-01-08T01:24:48.403Z,5.60
2018-01-08T01:27:16.799Z,13.32
2018-01-08T01:29:44.409Z,8.50
2018-01-08T01:32:12.074Z,7.22
2018-01-08T01:34:39.771Z,15.65
2018-01-08T01:37:08.153Z,16.87
2018-01-08T01:39:36.560Z,11.55
2018-01-08T01:42:04.195Z,10.35
2018-01-08T01:44:32.591Z,9.02
2018-01-08T01:47:00.204Z,10.65
2018-01-08T01:49:27.899Z,9.23
2018-01-08T01:51:56.379Z,8.00
2018-01-08T01:54:24.039Z,11.43
2018-01-08T01:56:52.536Z,11.77
2018-01-08T01:59:20.907Z,7.05
2018-01-08T02:01:49.390Z,10.35
2018-01-08T02:04:17.872Z,15.35
2018-01-08T02:06:46.270Z,7.50
2018-01-08T02:09:13.877Z,9.57
2018-01-08T02:11:41.575Z,9.18
2018-01-08T02:14:09.943Z,7.68
2018-01-08T02:16:39.079Z,8.38
2018-01-08T02:19:06.687Z,20.75
2018-01-08T02:21:34.317Z,9.30
2018-01-08T02:24:01.939Z,9.60
2018-01-08T02:26:30.433Z,14.30
2018-01-08T02:28:58.930Z,12.75
2018-01-08T02:31:26.536Z,15.75
2018-01-08T02:33:54.227Z,7.55
2018-01-08T02:36:22.712Z,14.23
2018-01-08T02:38:51.167Z,7.60
2018-01-08T02:41:18.860Z,8.00
2018-01-08T02:43:47.344Z,8.30
2018-01-08T02:46:14.984Z,7.53
2018-01-08T02:48:42.671Z,6.75
2018-01-08T02:51:11.064Z,9.40
2018-01-08T02:53:38.673Z,14.23
2018-01-08T02:56:06.375Z,12.07
2018-01-08T02:58:34.855Z,10.55
2018-01-08T03:01:03.343Z,15.38
2018-01-08T03:03:31.817Z,9.75
2018-01-08T03:06:00.236Z,7.05
2018-01-08T03:08:27.858Z,7.85
2018-01-08T03:10:56.237Z,10.25
2018-01-08T03:13:24.640Z,14.07
2018-01-08T03:15:52.251Z,15.05
2018-01-08T03:18:19.879Z,7.78
2018-01-08T03:20:47.508Z,11.15
2018-01-08T03:23:15.900Z,7.28
2018-01-08T03:25:44.915Z,7.40
2018-01-08T03:28:12.647Z,6.70
2018-01-08T03:30:41.021Z,6.87
2018-01-08T03:33:09.516Z,6.90
2018-01-08T03:35:37.887Z,9.68
2018-01-08T03:38:06.371Z,10.23
2018-01-08T03:40:34.856Z,6.87
2018-01-08T03:43:03.231Z,8.55
2018-01-08T03:45:31.712Z,6.95
2018-01-08T03:48:00.199Z,17.62
2018-01-08T03:50:28.682Z,15.27
2018-01-08T03:52:57.059Z,5.90
2018-01-08T03:55:25.552Z,12.20
2018-01-08T03:57:53.928Z,7.18
2018-01-08T04:00:22.336Z,18.30
2018-01-08T04:02:49.967Z,6.65
2018-01-08T04:05:18.447Z,9.00
2018-01-08T04:07:46.922Z,8.95
2018-01-08T04:10:14.553Z,8.43
2018-01-08T04:12:42.155Z,7.72
2018-01-08T04:15:10.546Z,22.33
2018-01-08T04:17:38.199Z,5.32
2018-01-08T04:20:06.679Z,8.90
2018-01-08T04:22:35.163Z,5.22
2018-01-08T04:25:03.648Z,4.87
2018-01-08T04:27:32.024Z,6.95
2018-01-08T04:30:00.508Z,4.45
2018-01-08T04:32:28.988Z,5.12
2018-01-08T04:34:57.355Z,6.15
2018-01-08T04:37:24.979Z,4.85
2018-01-08T04:39:52.578Z,4.62
2018-01-08T04:42:20.198Z,4.60
2018-01-08T04:44:47.911Z,15.98
2018-01-08T04:47:15.543Z,6.18
2018-01-08T04:49:43.244Z,5.90
2018-01-08T04:52:11.649Z,4.30
2018-01-08T04:54:39.287Z,11.38
2018-01-08T04:57:07.680Z,4.40
2018-01-08T04:59:35.288Z,8.48
2018-01-08T05:02:02.991Z,4.50
2018-01-08T05:04:31.363Z,6.20
2018-01-08T05:06:59.035Z,4.82
2018-01-08T05:09:27.520Z,6.12
2018-01-08T05:11:56.004Z,7.53
2018-01-08T05:14:24.484Z,5.47
2018-01-08T05:16:53.030Z,4.30
2018-01-08T05:19:20.731Z,7.57
2018-01-08T05:21:49.108Z,8.10
2018-01-08T05:24:17.500Z,8.38
2018-01-08T05:26:45.972Z,12.90
2018-01-08T05:29:14.367Z,12.57
2018-01-08T05:31:41.972Z,9.75
2018-01-08T05:34:09.687Z,12.98
2018-01-08T05:36:38.159Z,10.77
2018-01-08T05:39:06.707Z,15.98
2018-01-08T05:41:34.324Z,11.75
2018-01-08T05:44:01.958Z,10.32
2018-01-08T05:46:29.566Z,16.05
2018-01-08T05:48:57.191Z,13.02
2018-01-08T05:51:25.636Z,11.27
2018-01-08T05:53:53.243Z,7.97
2018-01-08T05:56:21.715Z,19.67
2018-01-08T05:58:50.199Z,21.95
2018-01-08T06:01:18.688Z,49.95
2018-01-08T06:03:47.067Z,47.58
2018-01-08T06:06:15.463Z,59.03
2018-01-08T06:08:43.104Z,33.50
2018-01-08T06:11:11.519Z,25.67
2018-01-08T06:13:39.246Z,33.72
2018-01-08T06:16:07.731Z,28.67
2018-01-08T06:18:36.174Z,68.55
2018-01-08T06:21:03.941Z,49.28
2018-01-08T06:23:31.638Z,54.75
2018-01-08T06:26:00.027Z,35.63
2018-01-08T06:28:28.568Z,44.10
2018-01-08T06:30:56.269Z,25.52
2018-01-08T06:33:24.747Z,15.45
2018-01-08T06:35:53.118Z,12.45
2018-01-08T06:38:20.858Z,18.60
2018-01-08T06:40:48.557Z,22.92
2018-01-08T06:43:17.091Z,24.37
2018-01-08T06:45:44.712Z,38.08
2018-01-08T06:48:13.187Z,21.42
2018-01-08T06:50:41.572Z,30.33
2018-01-08T06:53:10.051Z,21.08
2018-01-08T06:55:38.532Z,28.27
2018-01-08T06:58:07.019Z,38.45
2018-01-08T07:00:35.507Z,34.25
2018-01-08T07:03:03.123Z,23.45
2018-01-08T07:05:30.757Z,20.60
2018-01-08T07:07:58.488Z,32.42
2018-01-08T07:10:26.927Z,20.27
2018-01-08T07:12:54.634Z,23.02
2018-01-08T07:15:23.112Z,19.58
2018-01-08T07:17:51.497Z,15.07
2018-01-08T07:20:19.970Z,27.67
2018-01-08T07:22:48.347Z,29.48
2018-01-08T07:25:16.839Z,15.70
2018-01-08T07:27:45.323Z,23.92
2018-01-08T07:30:13.799Z,18.30
2018-01-08T07:32:42.212Z,22.92
2018-01-08T07:35:09.834Z,17.48
2018-01-08T07:37:37.505Z,23.38
2018-01-08T07:40:05.986Z,18.58
2018-01-08T07:42:34.525Z,27.15
2018-01-08T07:45:02.136Z,32.33
2018-01-08T07:47:30.544Z,16.58
2018-01-08T07:49:58.174Z,17.50
2018-01-08T07:52:26.583Z,23.87
2018-01-08T07:54:54.220Z,19.27
2018-01-08T07:57:22.619Z,17.58
2018-01-08T07:59:50.259Z,16.77
2018-01-08T08:02:18.748Z,12.70
2018-01-08T08:04:47.236Z,15.60
2018-01-08T08:07:14.849Z,14.60
2018-01-08T08:09:42.547Z,15.82
2018-01-08T08:12:10.923Z,9.90
2018-01-08T08:14:39.410Z,17.42
2018-01-08T08:17:07.861Z,9.90
2018-01-08T08:19:35.487Z,13.52
2018-01-08T08:22:03.119Z,13.68
2018-01-08T08:24:31.602Z,15.55
2018-01-08T08:26:59.973Z,12.57
2018-01-08T08:29:28.427Z,16.55
2018-01-08T08:31:56.033Z,11.43
2018-01-08T08:34:24.468Z,13.07
2018-01-08T08:36:52.081Z,17.85
2018-01-08T08:39:19.720Z,14.40
2018-01-08T08:41:47.460Z,20.25
2018-01-08T08:44:15.100Z,14.82
2018-01-08T08:46:42.823Z,11.27
2018-01-08T08:49:11.303Z,13.35
2018-01-08T08:51:39.699Z,11.70
2018-01-08T08:54:07.345Z,12.20
2018-01-08T08:56:35.739Z,13.10
2018-01-08T08:59:03.349Z,14.38
2018-01-08T09:01:31.015Z,32.63
2018-01-08T09:03:58.719Z,22.73
2018-01-08T09:06:27.180Z,13.10
2018-01-08T09:08:55.005Z,18.92
2018-01-08T09:11:22.736Z,16.05
2018-01-08T09:13:51.216Z,23.90
2018-01-08T09:16:19.760Z,14.60
2018-01-08T09:18:47.461Z,25.08
2018-01-08T09:21:15.839Z,23.05
2018-01-08T09:23:44.243Z,43.45
2018-01-08T09:26:11.883Z,45.42
2018-01-08T09:28:40.296Z,49.53
2018-01-08T09:31:07.927Z,48.63
2018-01-08T09:33:36.408Z,52.13
2018-01-08T09:36:04.896Z,48.35
2018-01-08T09:38:32.535Z,41.45
2018-01-08T09:41:00.220Z,50.67
2018-01-08T09:43:28.696Z,38.83
2018-01-08T09:45:57.075Z,49.70
2018-01-08T09:48:25.559Z,46.40
2018-01-08T09:50:54.043Z,33.80
2018-01-08T09:53:22.456Z,36.33
2018-01-08T09:55:50.083Z,36.28
2018-01-08T09:58:18.570Z,45.90
2018-01-08T10:00:47.056Z,42.90
2018-01-08T10:03:27.304Z,35.83
2018-01-08T10:06:07.563Z,53.63
2018-01-08T10:08:47.723Z,71.25
2018-01-08T10:11:27.804Z,63.10
2018-01-08T10:14:07.428Z,63.45
2018-01-08T10:16:47.735Z,32.95
2018-01-08T10:19:27.313Z,40.42
2018-01-08T10:21:55.772Z,62.30
2018-01-08T10:24:23.416Z,49.25
2018-01-08T10:26:51.132Z,40.67
2018-01-08T10:29:19.540Z,44.28
2018-01-08T10:31:47.175Z,53.22
2018-01-08T10:34:15.658Z,59.33
2018-01-08T10:36:44.139Z,49.13
2018-01-08T10:39:12.610Z,64.43
2018-01-08T10:41:46.704Z,46.83
2018-01-08T10:44:19.971Z,48.00
2018-01-08T10:46:53.283Z,49.08
2018-01-08T10:49:26.536Z,47.08
2018-01-08T10:51:53.687Z,49.25
2018-01-08T10:54:22.742Z,45.15
2018-01-08T10:56:50.376Z,54.38
2018-01-08T10:59:17.988Z,46.20
2018-01-08T11:01:52.191Z,64.97
2018-01-08T11:04:19.812Z,53.05
2018-01-08T11:06:47.536Z,46.08
2018-01-08T11:09:15.920Z,59.85
2018-01-08T11:11:43.642Z,55.20
2018-01-08T11:14:11.261Z,49.78
2018-01-08T11:16:38.995Z,51.60
2018-01-08T11:19:07.376Z,49.78
2018-01-08T11:21:35.759Z,35.50
2018-01-08T11:24:04.155Z,55.58
2018-01-08T11:26:31.784Z,31.90
2018-01-08T11:28:59.472Z,46.58
2018-01-08T11:31:28.019Z,42.08
2018-01-08T11:33:55.656Z,39.85
2018-01-08T11:36:23.278Z,38.50
2018-01-08T11:38:51.769Z,40.25
2018-01-08T11:41:20.146Z,36.35
2018-01-08T11:43:48.543Z,35.05
2018-01-08T11:46:16.158Z,33.45
2018-01-08T11:48:43.848Z,42.60
2018-01-08T11:51:12.231Z,46.20
2018-01-08T11:53:40.712Z,25.83
2018-01-08T11:56:09.712Z,32.10
2018-01-08T11:58:37.433Z,47.38
2018-01-08T12:01:12.592Z,33.13
2018-01-08T12:03:40.222Z,37.22
2018-01-08T12:06:07.835Z,28.30
2018-01-08T12:08:36.317Z,30.55
2018-01-08T12:11:03.975Z,33.42
2018-01-08T12:13:32.460Z,28.67
2018-01-08T12:16:03.503Z,24.73
2018-01-08T12:18:31.883Z,31.90
2018-01-08T12:21:00.295Z,47.13
2018-01-08T12:23:27.933Z,31.50
2018-01-08T12:25:55.596Z,35.83
2018-01-08T12:28:23.209Z,40.70
2018-01-08T12:30:50.953Z,36.88
2018-01-08T12:33:18.578Z,43.10
2018-01-08T12:35:46.982Z,38.22
2018-01-08T12:38:14.628Z,51.58
2018-01-08T12:40:42.239Z,43.72
2018-01-08T12:43:09.948Z,38.30
2018-01-08T12:45:38.427Z,44.63
2018-01-08T12:48:06.826Z,47.33
2018-01-08T12:50:34.440Z,60.50
2018-01-08T12:53:02.871Z,50.12
2018-01-08T12:55:30.515Z,50.90
2018-01-08T12:57:58.910Z,42.70
2018-01-08T13:00:26.523Z,32.70
2018-01-08T13:02:54.161Z,23.60
2018-01-08T13:05:21.883Z,34.13
2018-01-08T13:07:50.292Z,36.35
2018-01-08T13:10:17.912Z,38.67
2018-01-08T13:12:45.599Z,41.53
2018-01-08T13:15:13.216Z,34.47
2018-01-08T13:17:40.915Z,27.02
2018-01-08T13:20:09.402Z,33.03
2018-01-08T13:22:37.783Z,30.30
2018-01-08T13:25:05.424Z,30.58
2018-01-08T13:27:33.823Z,27.13
2018-01-08T13:30:02.233Z,31.40
2018-01-08T13:32:29.867Z,43.97
2018-01-08T13:34:58.344Z,39.78
2018-01-08T13:37:26.732Z,32.65
2018-01-08T13:39:54.372Z,33.05
2018-01-08T13:42:22.061Z,28.87
2018-01-08T13:44:50.459Z,40.90
2018-01-08T13:47:18.100Z,33.40
2018-01-08T13:49:46.584Z,38.42
2018-01-08T13:52:14.248Z,24.00
2018-01-08T13:54:42.711Z,36.38
2018-01-08T13:57:11.107Z,22.65
2018-01-08T13:59:39.492Z,22.23
2018-01-08T14:02:07.134Z,29.58
2018-01-08T14:04:35.535Z,29.73
2018-01-08T14:07:06.904Z,33.40
2018-01-08T14:09:34.548Z,22.13
2018-01-08T14:12:02.199Z,30.73
2018-01-08T14:14:30.688Z,13.68
2018-01-08T14:16:59.096Z,25.73
2018-01-08T14:19:26.703Z,28.20
2018-01-08T14:21:54.332Z,14.25
2018-01-08T14:24:22.055Z,28.58
2018-01-08T14:26:50.460Z,22.20
2018-01-08T14:29:18.080Z,25.20
2018-01-08T14:31:46.484Z,23.23
2018-01-08T14:34:14.858Z,26.65
2018-01-08T14:36:43.260Z,34.15
2018-01-08T14:39:10.871Z,45.55
2018-01-08T14:41:38.487Z,33.70
2018-01-08T14:44:06.142Z,22.42
2018-01-08T14:46:33.764Z,31.98
2018-01-08T14:49:01.391Z,25.05
2018-01-08T14:51:29.000Z,21.17
2018-01-08T14:53:56.675Z,30.48
2018-01-08T14:56:25.161Z,17.80
2018-01-08T14:58:53.563Z,28.52
2018-01-08T15:01:21.176Z,19.87
2018-01-08T15:03:48.868Z,17.17
2018-01-08T15:06:17.240Z,16.25
2018-01-08T15:08:45.736Z,21.95
2018-01-08T15:11:13.396Z,13.68
2018-01-08T15:13:41.792Z,24.33
2018-01-08T15:16:09.436Z,16.83
2018-01-08T15:18:37.920Z,12.55
2018-01-08T15:21:06.395Z,15.10
2018-01-08T15:23:34.880Z,13.77
2018-01-08T15:26:03.371Z,19.52
2018-01-08T15:28:30.995Z,19.10
2018-01-08T15:30:58.623Z,10.88
2018-01-08T15:33:26.252Z,8.60
2018-01-08T15:35:54.652Z,19.55
2018-01-08T15:38:22.255Z,9.45
2018-01-08T15:40:49.887Z,13.05
2018-01-08T15:43:17.490Z,10.80
2018-01-08T15:45:45.179Z,10.18
2018-01-08T15:48:13.543Z,16.17
2018-01-08T15:50:42.039Z,23.48
2018-01-08T15:53:10.442Z,14.82
2018-01-08T15:55:38.071Z,20.35
2018-01-08T15:58:05.683Z,15.98
2018-01-08T16:00:33.312Z,16.40
2018-01-08T16:03:01.793Z,18.73
2018-01-08T16:05:30.164Z,17.08
2018-01-08T16:07:58.615Z,23.05
2018-01-08T16:10:26.220Z,16.25
2018-01-08T16:12:54.617Z,17.02
2018-01-08T16:15:22.255Z,15.82
2018-01-08T16:17:50.651Z,31.90
2018-01-08T16:20:18.299Z,27.10
2018-01-08T16:22:46.696Z,18.75
2018-01-08T16:25:14.307Z,32.58
2018-01-08T16:27:42.003Z,24.87
2018-01-08T16:30:10.376Z,43.28
2018-01-08T16:32:38.047Z,41.83
2018-01-08T16:35:06.527Z,35.47
2018-01-08T16:37:34.899Z,35.70
2018-01-08T16:40:02.581Z,33.47
2018-01-08T16:42:30.963Z,40.60
2018-01-08T16:44:58.600Z,31.27
2018-01-08T16:47:26.280Z,38.70
2018-01-08T16:49:54.692Z,48.25
2018-01-08T16:52:22.307Z,31.25
2018-01-08T16:54:49.986Z,44.63
2018-01-08T16:57:18.362Z,47.15
2018-01-08T16:59:46.856Z,36.97
2018-01-08T17:02:14.517Z,44.88
2018-01-08T17:04:42.155Z,48.42
2018-01-08T17:07:09.844Z,41.28
2018-01-08T17:09:37.476Z,46.15
2018-01-08T17:12:05.164Z,52.15
2018-01-08T17:14:33.564Z,49.08
2018-01-08T17:17:01.175Z,75.70
2018-01-08T17:19:28.866Z,58.30
2018-01-08T17:21:57.273Z,48.17
2018-01-08T17:24:24.920Z,40.78
2018-01-08T17:26:52.555Z,48.30
2018-01-08T17:29:20.244Z,48.00
2018-01-08T17:31:48.639Z,43.15
2018-01-08T17:34:16.284Z,41.40
2018-01-08T17:36:44.772Z,44.15
2018-01-08T17:39:12.395Z,47.97
2018-01-08T17:41:40.022Z,42.95
2018-01-08T17:44:07.651Z,49.60
2018-01-08T17:46:36.199Z,47.88
2018-01-08T17:49:03.820Z,32.13
2018-01-08T17:51:31.468Z,37.00
2018-01-08T17:53:59.871Z,40.17
2018-01-08T17:56:27.504Z,42.03
2018-01-08T17:58:55.917Z,35.70
2018-01-08T18:01:23.552Z,39.38
2018-01-08T18:03:51.959Z,45.08
2018-01-08T18:06:19.587Z,38.65
2018-01-08T18:08:47.998Z,54.22
2018-01-08T18:11:15.607Z,35.80
2018-01-08T18:13:43.244Z,39.03
2018-01-08T18:16:10.856Z,32.63
2018-01-08T18:18:39.272Z,49.50
2018-01-08T18:21:06.892Z,51.25
2018-01-08T18:23:35.287Z,40.90
2018-01-08T18:26:03.764Z,42.67
2018-01-08T18:28:32.307Z,45.58
2018-01-08T18:30:59.924Z,48.87
2018-01-08T18:33:27.544Z,54.60
2018-01-08T18:35:55.189Z,43.97
2018-01-08T18:38:22.806Z,48.38
2018-01-08T18:40:50.462Z,45.25
2018-01-08T18:43:18.079Z,52.70
2018-01-08T18:45:45.779Z,55.20
2018-01-08T18:48:14.165Z,45.67
2018-01-08T18:50:42.647Z,52.60
2018-01-08T18:53:11.123Z,48.10
2018-01-08T18:55:39.529Z,50.42
2018-01-08T18:58:07.140Z,53.15
2018-01-08T19:00:34.832Z,72.53
2018-01-08T19:03:03.311Z,71.65
2018-01-08T19:05:31.723Z,50.80
2018-01-08T19:07:59.360Z,52.92
2018-01-08T19:10:27.836Z,55.00
2018-01-08T19:12:56.234Z,70.03
2018-01-08T19:15:23.851Z,66.10
2018-01-08T19:17:52.260Z,74.50
2018-01-08T19:20:20.634Z,72.68
2018-01-08T19:22:49.031Z,64.55
2018-01-08T19:25:16.644Z,53.10
2018-01-08T19:27:45.188Z,60.75
2018-01-08T19:30:12.808Z,61.55
2018-01-08T19:32:40.452Z,40.33
2018-01-08T19:35:08.156Z,52.83
2018-01-08T19:37:36.567Z,43.35
2018-01-08T19:40:04.191Z,42.85
2018-01-08T19:42:32.592Z,45.30
2018-01-08T19:45:00.216Z,53.30
2018-01-08T19:47:27.835Z,48.70
2018-01-08T19:49:55.563Z,54.75
2018-01-08T19:52:23.934Z,33.17
2018-01-08T19:54:52.339Z,43.00
2018-01-08T19:57:19.991Z,35.63
2018-01-08T19:59:48.404Z,47.62
2018-01-08T20:02:16.166Z,58.75
2018-01-08T20:04:43.900Z,49.20
2018-01-08T20:07:12.292Z,49.85
2018-01-08T20:09:40.060Z,41.72
2018-01-08T20:12:07.683Z,49.60
2018-01-08T20:14:35.367Z,34.30
2018-01-08T20:17:03.751Z,40.88
2018-01-08T20:19:33.012Z,40.03
2018-01-08T20:22:00.716Z,41.80
2018-01-08T20:24:28.337Z,40.80
2018-01-08T20:26:56.040Z,39.17
2018-01-08T20:29:24.431Z,40.90
2018-01-08T20:31:52.067Z,36.45
2018-01-08T20:34:20.451Z,35.65
2018-01-08T20:36:48.939Z,25.30
2018-01-08T20:39:17.324Z,22.35
2018-01-08T20:41:44.976Z,22.58
2018-01-08T20:44:13.506Z,24.77
2018-01-08T20:46:41.227Z,20.83
2018-01-08T20:49:09.717Z,28.62
2018-01-08T20:51:38.128Z,17.73
2018-01-08T20:54:05.756Z,26.08
2018-01-08T20:56:34.238Z,27.50
2018-01-08T20:59:02.615Z,31.37
2018-01-08T21:01:31.019Z,25.48
2018-01-08T21:03:58.664Z,19.42
2018-01-08T21:06:27.144Z,22.08
2018-01-08T21:08:55.523Z,24.15
2018-01-08T21:11:23.892Z,14.00
2018-01-08T21:13:52.291Z,37.00
2018-01-08T21:16:19.907Z,22.52
2018-01-08T21:18:47.539Z,21.25
2018-01-08T21:21:15.152Z,26.12
2018-01-08T21:23:42.795Z,23.65
2018-01-08T21:26:10.486Z,21.67
2018-01-08T21:28:38.883Z,22.27
2018-01-08T21:31:06.534Z,24.80
2018-01-08T21:33:35.015Z,29.17
2018-01-08T21:36:03.400Z,21.37
2018-01-08T21:38:31.892Z,24.85
2018-01-08T21:40:59.517Z,22.55
2018-01-08T21:43:27.206Z,25.40
2018-01-08T21:45:55.685Z,23.52
2018-01-08T21:48:24.168Z,24.33
2018-01-08T21:50:52.575Z,29.83
2018-01-08T21:53:20.192Z,29.98
2018-01-08T21:55:47.833Z,28.05
2018-01-08T21:58:15.452Z,22.55
2018-01-08T22:00:43.195Z,25.80
2018-01-08T22:03:11.680Z,29.55
2018-01-08T22:05:40.089Z,26.27
2018-01-08T22:08:07.723Z,24.55
2018-01-08T22:10:36.132Z,20.08
2018-01-08T22:13:03.747Z,23.12
2018-01-08T22:15:32.248Z,29.50
2018-01-08T22:18:00.729Z,24.63
2018-01-08T22:20:29.216Z,32.03
2018-01-08T22:22:57.607Z,29.15
2018-01-08T22:25:25.255Z,27.30
2018-01-08T22:27:53.735Z,25.80
2018-01-08T22:30:22.115Z,27.25
2018-01-08T22:32:50.520Z,30.58
2018-01-08T22:35:18.132Z,36.40
2018-01-08T22:37:45.823Z,28.55
2018-01-08T22:40:14.212Z,27.70
2018-01-08T22:42:41.846Z,33.65
2018-01-08T22:45:09.574Z,32.67
2018-01-08T22:47:37.295Z,28.85
2018-01-08T22:50:05.675Z,33.03
2018-01-08T22:52:34.151Z,39.00
2018-01-08T22:55:02.524Z,33.38
2018-01-08T22:57:31.010Z,29.98
2018-01-08T22:59:59.496Z,33.85
2018-01-08T23:02:27.900Z,37.67
2018-01-08T23:04:55.511Z,40.12
2018-01-08T23:07:23.198Z,39.42
2018-01-08T23:09:51.683Z,34.17
2018-01-08T23:12:20.156Z,36.63
2018-01-08T23:14:48.652Z,32.90
2018-01-08T23:17:17.032Z,38.40
2018-01-08T23:19:45.512Z,35.67
2018-01-08T23:22:13.991Z,39.13
2018-01-08T23:24:42.404Z,39.20
2018-01-08T23:27:10.041Z,39.58
2018-01-08T23:29:38.444Z,40.50
2018-01-08T23:32:06.076Z,40.53
2018-01-08T23:34:34.563Z,37.53
2018-01-08T23:37:02.947Z,49.50
2018-01-08T23:39:31.427Z,35.33
2018-01-08T23:41:59.903Z,41.28
2018-01-08T23:44:28.283Z,38.67
2018-01-08T23:46:56.767Z,46.67
2018-01-08T23:49:25.251Z,38.30
2018-01-08T23:51:53.732Z,38.65
2018-01-08T23:54:22.121Z,50.78
2018-01-08T23:56:49.880Z,41.22
2018-01-08T23:59:18.316Z,45.80
